Time;durP1;ratioP1;P1;durP2;ratioP2;P2;SDS_P1;SDS_P2;PMS_P1;PMS_P2;Temp;Humidity;BMP_temperature;BMP_pressure;BME280_temperature;BME280_humidity;BME280_pressure;Samples;Min_cycle;Max_cycle;Signal;HPM_P1;HPM_P2
2021/10/21 00:01:09;;;;;;;11.68;4.43;;;15.40;95.60;;;;;;5029345;28;20434;-76
2021/10/21 00:03:35;;;;;;;8.70;4.68;;;15.40;95.70;;;;;;5040161;28;20047;-76
2021/10/21 00:06:02;;;;;;;11.00;5.32;;;15.40;95.70;;;;;;5044818;28;20033;-76
2021/10/21 00:08:28;;;;;;;13.07;5.05;;;15.40;95.80;;;;;;5045990;28;20025;-76
2021/10/21 00:10:54;;;;;;;14.98;5.30;;;15.40;96.00;;;;;;5042617;28;20549;-76
2021/10/21 00:13:20;;;;;;;15.23;5.78;;;15.40;96.00;;;;;;5032039;28;20446;-76
2021/10/21 00:15:46;;;;;;;11.90;5.70;;;15.30;96.20;;;;;;5039086;28;20032;-75
2021/10/21 00:18:12;;;;;;;20.30;6.20;;;15.30;96.30;;;;;;5028470;28;20029;-75
2021/10/21 00:20:38;;;;;;;12.77;5.07;;;15.30;96.50;;;;;;5029419;28;20061;-75
2021/10/21 00:23:03;;;;;;;13.50;4.28;;;15.20;96.50;;;;;;5024920;28;20059;-75
2021/10/21 00:25:29;;;;;;;13.25;4.80;;;15.30;96.50;;;;;;5051977;28;20032;-76
2021/10/21 00:27:55;;;;;;;10.05;3.80;;;15.20;96.40;;;;;;5045151;28;20782;-75
2021/10/21 00:30:20;;;;;;;7.18;3.90;;;15.20;96.20;;;;;;5028111;28;20118;-76
2021/10/21 00:32:46;;;;;;;9.40;4.40;;;15.20;96.20;;;;;;5028089;28;20036;-76
2021/10/21 00:35:12;;;;;;;7.95;4.30;;;15.20;96.30;;;;;;5031333;28;20026;-76
2021/10/21 00:37:39;;;;;;;9.32;4.45;;;15.20;96.50;;;;;;5029787;28;20021;-76
2021/10/21 00:40:06;;;;;;;9.38;3.72;;;15.20;96.50;;;;;;5036283;28;20044;-76
2021/10/21 00:42:32;;;;;;;6.35;3.70;;;15.20;96.60;;;;;;5029257;28;20037;-76
2021/10/21 00:44:57;;;;;;;12.98;4.40;;;15.10;96.60;;;;;;5049455;28;20025;-77
2021/10/21 00:47:23;;;;;;;10.18;5.10;;;15.10;96.70;;;;;;5048149;28;20060;-76
2021/10/21 00:49:48;;;;;;;7.68;3.90;;;15.10;96.70;;;;;;5031471;28;20029;-76
2021/10/21 00:52:15;;;;;;;8.15;3.60;;;15.10;96.80;;;;;;5031592;28;20025;-76
2021/10/21 00:54:43;;;;;;;9.23;4.00;;;15.10;96.80;;;;;;5015029;28;20029;-76
2021/10/21 00:57:12;;;;;;;5.45;3.65;;;15.10;96.70;;;;;;5040810;28;20050;-76
2021/10/21 00:59:39;;;;;;;8.55;2.95;;;15.10;96.60;;;;;;5049221;28;20074;-76
2021/10/21 01:02:05;;;;;;;10.80;2.50;;;15.00;95.90;;;;;;5047486;28;20033;-76
2021/10/21 01:04:30;;;;;;;8.07;2.10;;;15.00;95.30;;;;;;5028719;28;20036;-76
2021/10/21 01:06:56;;;;;;;7.45;2.00;;;14.90;94.60;;;;;;5031019;28;20488;-76
2021/10/21 01:09:23;;;;;;;9.65;1.80;;;14.90;94.90;;;;;;5038224;28;20355;-76
2021/10/21 01:11:50;;;;;;;6.30;1.60;;;14.80;94.30;;;;;;5048814;28;20029;-76
2021/10/21 01:14:16;;;;;;;11.85;1.50;;;14.70;93.70;;;;;;5020666;28;20048;-76
2021/10/21 01:16:42;;;;;;;8.18;1.73;;;14.60;93.60;;;;;;5031228;28;20492;-76
2021/10/21 01:19:16;;;;;;;7.05;1.58;;;14.60;93.20;;;;;;5031008;28;20033;-76
2021/10/21 01:21:46;;;;;;;4.80;1.35;;;14.50;93.30;;;;;;5037426;28;20115;-76
2021/10/21 01:24:12;;;;;;;7.78;2.20;;;14.40;92.80;;;;;;5048887;28;20028;-76
2021/10/21 01:26:38;;;;;;;5.65;1.08;;;14.40;92.70;;;;;;5021459;28;20029;-76
2021/10/21 01:29:05;;;;;;;11.55;1.45;;;14.30;92.40;;;;;;5048727;28;20703;-76
2021/10/21 01:31:30;;;;;;;7.88;1.00;;;14.20;91.30;;;;;;5041121;28;20036;-76
2021/10/21 01:33:56;;;;;;;9.20;0.98;;;14.10;91.60;;;;;;5043443;28;20059;-76
2021/10/21 01:36:22;;;;;;;3.50;0.90;;;14.00;90.20;;;;;;5052052;28;20089;-76
2021/10/21 01:38:47;;;;;;;5.07;1.00;;;13.90;89.90;;;;;;5034241;28;20037;-76
2021/10/21 01:41:13;;;;;;;6.35;0.82;;;13.80;90.50;;;;;;5034031;28;20600;-76
2021/10/21 01:43:45;;;;;;;8.65;0.68;;;13.70;89.20;;;;;;5059909;27;20021;-76
2021/10/21 01:46:11;;;;;;;7.70;1.02;;;13.70;90.00;;;;;;5031618;28;20119;-76
2021/10/21 01:48:37;;;;;;;5.35;0.90;;;13.60;90.30;;;;;;5051683;28;20483;-76
2021/10/21 01:51:04;;;;;;;11.75;0.90;;;13.60;90.40;;;;;;5051983;28;20366;-76
2021/10/21 01:53:30;;;;;;;10.38;0.73;;;13.50;90.70;;;;;;5046550;28;20105;-76
2021/10/21 01:55:55;;;;;;;7.00;1.38;;;13.50;90.50;;;;;;5038842;28;20802;-75
2021/10/21 01:58:21;;;;;;;5.00;0.80;;;13.50;89.70;;;;;;5033974;28;20108;-76
2021/10/21 02:00:47;;;;;;;6.93;0.80;;;13.50;90.20;;;;;;5048016;28;20090;-77
2021/10/21 02:03:13;;;;;;;10.70;1.05;;;13.50;89.50;;;;;;5021209;28;20025;-76
2021/10/21 02:05:38;;;;;;;2.03;0.60;;;13.50;90.00;;;;;;5016891;28;20025;-76
2021/10/21 02:08:04;;;;;;;7.53;0.90;;;13.50;90.00;;;;;;5034147;28;20037;-76
2021/10/21 02:10:30;;;;;;;7.95;0.80;;;13.50;90.10;;;;;;5035634;28;20474;-76
2021/10/21 02:12:56;;;;;;;4.30;1.20;;;13.50;90.00;;;;;;5033796;28;20116;-76
2021/10/21 02:15:21;;;;;;;4.07;0.80;;;13.50;90.20;;;;;;5051328;28;21918;-76
2021/10/21 02:17:47;;;;;;;5.63;0.90;;;13.50;90.00;;;;;;5061990;27;20044;-73
2021/10/21 02:20:14;;;;;;;9.27;0.90;;;13.50;90.40;;;;;;5047013;28;20048;-74
2021/10/21 02:22:41;;;;;;;8.20;0.93;;;13.60;90.00;;;;;;5052133;28;20749;-75
2021/10/21 02:25:09;;;;;;;6.35;1.10;;;13.50;90.30;;;;;;5031420;28;20040;-75
2021/10/21 02:27:35;;;;;;;7.45;1.10;;;13.50;90.00;;;;;;5044786;28;20089;-75
2021/10/21 02:30:01;;;;;;;6.82;1.20;;;13.60;90.20;;;;;;5049740;28;20037;-75
2021/10/21 02:32:26;;;;;;;10.32;1.10;;;13.60;89.90;;;;;;5029162;28;20477;-75
2021/10/21 02:34:52;;;;;;;6.82;1.15;;;13.60;89.80;;;;;;5047441;28;20064;-75
2021/10/21 02:37:18;;;;;;;12.27;1.17;;;13.50;90.00;;;;;;5024226;28;20070;-75
2021/10/21 02:39:44;;;;;;;9.73;1.38;;;13.50;90.00;;;;;;5030604;28;20157;-75
2021/10/21 02:42:09;;;;;;;6.85;1.00;;;13.50;90.40;;;;;;5029166;28;20896;-75
2021/10/21 02:44:36;;;;;;;7.40;1.00;;;13.50;90.00;;;;;;5046946;28;20112;-75
2021/10/21 02:47:01;;;;;;;8.68;1.13;;;13.50;90.30;;;;;;5030622;28;20041;-75
2021/10/21 02:49:27;;;;;;;4.90;0.90;;;13.50;90.30;;;;;;5029474;28;20025;-75
2021/10/21 02:51:53;;;;;;;3.63;0.88;;;13.50;89.50;;;;;;5011608;28;20029;-75
2021/10/21 02:54:18;;;;;;;7.50;1.38;;;13.50;90.00;;;;;;5027941;28;20494;-75
2021/10/21 02:56:44;;;;;;;4.20;0.88;;;13.50;90.10;;;;;;5012625;28;20601;-75
2021/10/21 02:59:09;;;;;;;6.85;0.80;;;13.50;90.00;;;;;;5031412;28;20416;-75
2021/10/21 03:01:35;;;;;;;7.90;1.20;;;13.50;90.20;;;;;;5012212;28;20033;-75
2021/10/21 03:04:01;;;;;;;6.57;1.08;;;13.50;90.40;;;;;;5029503;28;20033;-75
2021/10/21 03:06:26;;;;;;;11.90;1.17;;;13.50;90.50;;;;;;5046515;28;20049;-75
2021/10/21 03:08:52;;;;;;;3.88;1.00;;;13.50;90.50;;;;;;5030975;28;20063;-75
2021/10/21 03:11:18;;;;;;;9.90;1.00;;;13.40;90.50;;;;;;5049311;28;20036;-75
2021/10/21 03:13:43;;;;;;;7.15;1.10;;;13.40;90.60;;;;;;5043348;28;20548;-75
2021/10/21 03:16:09;;;;;;;7.45;1.15;;;13.40;90.70;;;;;;5046342;28;20410;-75
2021/10/21 03:18:35;;;;;;;10.27;1.33;;;13.40;90.50;;;;;;5024867;28;20481;-73
2021/10/21 03:21:00;;;;;;;6.30;0.90;;;13.40;90.60;;;;;;5028396;28;20037;-73
2021/10/21 03:23:26;;;;;;;8.10;1.20;;;13.40;90.80;;;;;;5043797;28;20025;-73
2021/10/21 03:25:53;;;;;;;8.07;0.98;;;13.40;90.80;;;;;;5026553;28;20032;-73
2021/10/21 03:28:19;;;;;;;8.15;1.00;;;13.40;91.00;;;;;;5044189;28;20040;-73
2021/10/21 03:30:45;;;;;;;6.68;1.13;;;13.40;91.00;;;;;;5044356;28;20045;-73
2021/10/21 03:33:12;;;;;;;11.00;1.30;;;13.30;90.80;;;;;;5043229;28;20061;-73
2021/10/21 03:35:38;;;;;;;9.35;1.33;;;13.30;91.00;;;;;;5040321;28;20028;-73
2021/10/21 03:38:04;;;;;;;9.32;1.20;;;13.30;90.90;;;;;;5027236;28;20404;-74
2021/10/21 03:40:30;;;;;;;5.75;1.08;;;13.30;90.90;;;;;;5062514;27;20061;-73
2021/10/21 03:42:56;;;;;;;5.97;1.30;;;13.30;91.00;;;;;;5042476;28;20029;-73
2021/10/21 03:45:21;;;;;;;10.88;1.58;;;13.30;91.00;;;;;;5029514;28;20029;-73
2021/10/21 03:47:47;;;;;;;9.15;1.20;;;13.30;91.30;;;;;;5029609;28;20029;-73
2021/10/21 03:50:13;;;;;;;8.40;1.10;;;13.20;91.20;;;;;;5029337;28;20021;-73
2021/10/21 03:52:39;;;;;;;6.72;0.82;;;13.20;91.40;;;;;;5029133;28;20116;-74
2021/10/21 03:55:05;;;;;;;10.02;1.58;;;13.20;91.50;;;;;;5041416;28;20040;-73
2021/10/21 03:57:31;;;;;;;9.95;1.13;;;13.20;91.50;;;;;;5027216;28;20172;-73
2021/10/21 03:59:56;;;;;;;8.82;1.35;;;13.10;91.50;;;;;;5043292;28;20145;-73
2021/10/21 04:02:22;;;;;;;8.63;1.17;;;13.10;91.60;;;;;;5046645;28;20039;-73
2021/10/21 04:04:47;;;;;;;8.68;1.05;;;13.10;91.40;;;;;;5027737;28;20109;-73
2021/10/21 04:07:13;;;;;;;9.60;1.40;;;13.10;91.50;;;;;;5046976;28;20456;-73
2021/10/21 04:09:39;;;;;;;8.65;1.38;;;13.10;91.50;;;;;;5043718;28;20044;-73
2021/10/21 04:12:05;;;;;;;5.55;0.82;;;13.10;91.60;;;;;;5028527;28;20036;-73
2021/10/21 04:14:31;;;;;;;7.68;1.13;;;13.10;91.80;;;;;;5026519;28;20127;-73
2021/10/21 04:16:56;;;;;;;4.80;1.00;;;13.10;91.70;;;;;;5048477;28;20036;-73
2021/10/21 04:19:22;;;;;;;8.80;1.30;;;13.10;91.70;;;;;;5045555;28;20090;-74
2021/10/21 04:21:47;;;;;;;7.72;0.90;;;13.00;91.50;;;;;;5026305;28;20036;-73
2021/10/21 04:24:13;;;;;;;8.82;1.13;;;13.00;91.70;;;;;;5054579;28;20481;-73
2021/10/21 04:26:39;;;;;;;4.97;0.82;;;13.00;91.90;;;;;;5044896;28;20026;-73
2021/10/21 04:29:04;;;;;;;5.32;1.02;;;13.00;92.10;;;;;;5009408;28;20041;-73
2021/10/21 04:31:30;;;;;;;6.28;0.98;;;12.90;92.40;;;;;;5044443;28;20037;-73
2021/10/21 04:33:57;;;;;;;8.00;1.17;;;12.90;92.70;;;;;;5027319;28;20089;-73
2021/10/21 04:36:23;;;;;;;5.20;0.90;;;12.90;93.00;;;;;;5028374;28;20017;-73
2021/10/21 04:38:48;;;;;;;6.32;0.90;;;12.80;93.10;;;;;;5046008;28;20413;-73
2021/10/21 04:41:14;;;;;;;3.22;0.70;;;12.80;93.30;;;;;;5025351;27;20045;-76
2021/10/21 04:43:39;;;;;;;5.28;0.70;;;12.80;93.40;;;;;;5048953;28;20473;-76
2021/10/21 04:46:05;;;;;;;4.38;0.70;;;12.80;93.50;;;;;;5012920;28;20034;-76
2021/10/21 04:48:31;;;;;;;6.82;0.77;;;12.70;93.40;;;;;;5071767;27;20022;-76
2021/10/21 04:50:56;;;;;;;4.15;0.80;;;12.70;93.40;;;;;;5011654;28;20090;-76
2021/10/21 04:53:22;;;;;;;6.63;0.80;;;12.70;93.50;;;;;;5024306;28;20477;-76
2021/10/21 04:55:48;;;;;;;4.30;0.50;;;12.70;93.60;;;;;;5056716;28;20086;-76
2021/10/21 04:58:13;;;;;;;4.57;0.60;;;12.70;93.60;;;;;;5011849;28;20038;-76
2021/10/21 05:00:39;;;;;;;3.72;0.38;;;12.70;93.40;;;;;;5029676;28;20025;-76
2021/10/21 05:03:09;;;;;;;2.92;0.40;;;12.60;93.40;;;;;;4995535;28;20359;-76
2021/10/21 05:05:36;;;;;;;2.40;0.45;;;12.60;93.50;;;;;;5015791;28;20026;-76
2021/10/21 05:08:02;;;;;;;2.65;0.30;;;12.60;93.60;;;;;;5042004;28;20386;-76
2021/10/21 05:10:28;;;;;;;3.00;0.40;;;12.60;93.80;;;;;;5038443;28;20017;-76
2021/10/21 05:12:53;;;;;;;2.25;0.60;;;12.60;93.80;;;;;;5049963;28;20388;-76
2021/10/21 05:15:19;;;;;;;2.50;0.30;;;12.60;93.60;;;;;;5072831;27;20024;-76
2021/10/21 05:17:45;;;;;;;3.33;0.25;;;12.60;93.60;;;;;;5072455;27;20021;-74
2021/10/21 05:20:11;;;;;;;4.75;0.50;;;12.60;93.70;;;;;;5025957;28;20029;-74
2021/10/21 05:22:37;;;;;;;6.55;0.57;;;12.60;93.80;;;;;;5041869;28;20397;-74
2021/10/21 05:25:03;;;;;;;1.58;0.45;;;12.60;94.10;;;;;;5047572;28;20029;-74
2021/10/21 05:27:29;;;;;;;6.03;0.70;;;12.50;94.30;;;;;;5030249;28;20036;-74
2021/10/21 05:29:54;;;;;;;5.78;0.70;;;12.40;94.30;;;;;;5029343;28;20430;-74
2021/10/21 05:32:20;;;;;;;3.05;0.52;;;12.40;94.40;;;;;;5022852;28;20094;-74
2021/10/21 05:34:46;;;;;;;4.88;0.65;;;12.30;94.30;;;;;;5030962;28;20041;-74
2021/10/21 05:37:12;;;;;;;8.65;0.88;;;12.30;94.20;;;;;;5030373;28;20528;-74
2021/10/21 05:39:38;;;;;;;17.85;1.02;;;12.20;93.90;;;;;;5037076;28;20366;-76
2021/10/21 05:42:04;;;;;;;4.00;0.80;;;12.20;93.70;;;;;;5013891;28;20071;-76
2021/10/21 05:44:29;;;;;;;8.75;1.25;;;12.10;93.50;;;;;;5031589;28;20477;-76
2021/10/21 05:46:55;;;;;;;11.60;0.82;;;12.10;93.70;;;;;;5024781;28;20086;-76
2021/10/21 05:49:21;;;;;;;6.70;0.80;;;12.00;93.90;;;;;;5013951;28;20064;-76
2021/10/21 05:51:47;;;;;;;5.82;1.23;;;12.00;94.00;;;;;;5014520;28;20500;-76
2021/10/21 05:54:13;;;;;;;7.97;0.60;;;11.90;94.00;;;;;;5028004;28;20084;-76
2021/10/21 05:56:39;;;;;;;4.00;0.40;;;11.90;93.90;;;;;;5014409;28;20056;-76
2021/10/21 05:59:04;;;;;;;2.92;0.50;;;11.80;94.00;;;;;;5027645;28;20509;-76
2021/10/21 06:01:30;;;;;;;3.72;0.43;;;11.70;94.10;;;;;;5012270;28;20122;-76
2021/10/21 06:03:57;;;;;;;3.47;0.45;;;11.70;94.20;;;;;;4997126;28;20029;-76
2021/10/21 06:06:22;;;;;;;4.38;0.75;;;11.60;94.40;;;;;;5031593;28;20026;-76
2021/10/21 06:08:48;;;;;;;6.40;0.93;;;11.60;94.60;;;;;;5031112;28;20150;-76
2021/10/21 06:11:13;;;;;;;8.38;0.70;;;11.60;94.80;;;;;;5013666;28;20041;-76
2021/10/21 06:13:40;;;;;;;6.95;0.80;;;11.50;94.90;;;;;;5031060;28;20582;-77
2021/10/21 06:16:07;;;;;;;8.25;0.98;;;11.50;94.90;;;;;;5031537;28;20030;-76
2021/10/21 06:18:34;;;;;;;7.57;1.23;;;11.50;95.00;;;;;;5031307;28;20486;-76
2021/10/21 06:21:01;;;;;;;14.57;1.52;;;11.40;95.10;;;;;;5013933;28;20117;-76
2021/10/21 06:23:26;;;;;;;10.50;1.00;;;11.40;95.20;;;;;;5013342;28;20021;-76
2021/10/21 06:25:52;;;;;;;17.23;2.08;;;11.40;95.40;;;;;;5031387;28;20090;-77
2021/10/21 06:28:18;;;;;;;9.38;1.38;;;11.40;95.40;;;;;;5031530;28;20036;-77
2021/10/21 06:30:46;;;;;;;12.38;2.13;;;11.30;95.40;;;;;;5031714;28;20034;-77
2021/10/21 06:33:13;;;;;;;13.85;1.70;;;11.40;95.50;;;;;;4997371;28;20030;-77
2021/10/21 06:35:41;;;;;;;14.15;1.30;;;11.30;95.50;;;;;;5018132;28;20028;-76
2021/10/21 06:38:07;;;;;;;10.25;2.00;;;11.30;95.50;;;;;;5044406;28;20025;-76
2021/10/21 06:40:33;;;;;;;10.18;2.08;;;11.30;95.50;;;;;;4996461;28;20041;-76
2021/10/21 06:42:58;;;;;;;9.00;1.60;;;11.30;95.40;;;;;;5029234;28;20509;-76
2021/10/21 06:45:24;;;;;;;11.30;1.70;;;11.30;95.30;;;;;;5013214;28;20025;-76
2021/10/21 06:47:50;;;;;;;17.25;1.73;;;11.20;95.30;;;;;;5012987;28;20041;-76
2021/10/21 06:50:16;;;;;;;14.98;1.42;;;11.20;95.30;;;;;;5030264;28;20739;-76
2021/10/21 06:52:47;;;;;;;12.88;1.80;;;11.20;95.20;;;;;;5030546;28;20033;-76
2021/10/21 06:55:14;;;;;;;12.50;1.75;;;11.20;95.20;;;;;;4996606;28;20436;-73
2021/10/21 06:57:48;;;;;;;10.45;1.75;;;11.20;94.90;;;;;;5028448;28;20036;-73
2021/10/21 07:00:15;;;;;;;9.98;1.92;;;11.10;94.90;;;;;;5028436;28;20030;-74
2021/10/21 07:02:41;;;;;;;16.00;2.28;;;11.10;94.90;;;;;;5028828;28;20033;-73
2021/10/21 07:05:07;;;;;;;13.23;1.88;;;11.10;94.70;;;;;;5028742;28;20033;-73
2021/10/21 07:07:33;;;;;;;9.50;1.52;;;11.00;94.60;;;;;;5029359;28;20030;-74
2021/10/21 07:10:00;;;;;;;9.35;1.42;;;11.10;94.40;;;;;;5006796;28;20128;-73
2021/10/21 07:12:26;;;;;;;11.13;1.52;;;11.00;94.00;;;;;;5022668;28;20033;-73
2021/10/21 07:14:52;;;;;;;7.15;1.33;;;11.00;94.00;;;;;;5011515;28;20030;-73
2021/10/21 07:17:18;;;;;;;9.93;1.35;;;10.90;93.80;;;;;;5028687;28;20025;-73
2021/10/21 07:19:48;;;;;;;8.88;1.63;;;10.90;93.90;;;;;;5028986;28;20112;-73
2021/10/21 07:22:14;;;;;;;7.30;1.30;;;10.90;94.00;;;;;;5029074;28;20477;-76
2021/10/21 07:24:39;;;;;;;8.70;1.40;;;10.90;94.00;;;;;;5029050;28;20033;-76
2021/10/21 07:27:05;;;;;;;12.85;1.13;;;11.00;94.00;;;;;;5011412;28;20034;-76
2021/10/21 07:29:31;;;;;;;12.93;1.65;;;11.00;93.90;;;;;;5010453;28;20025;-76
2021/10/21 07:31:57;;;;;;;12.07;1.30;;;11.00;94.10;;;;;;5012161;28;20554;-76
2021/10/21 07:34:22;;;;;;;13.20;1.80;;;11.00;93.80;;;;;;5027731;28;20032;-76
2021/10/21 07:36:48;;;;;;;12.85;1.70;;;11.10;94.00;;;;;;5019544;28;20037;-76
2021/10/21 07:39:14;;;;;;;7.97;1.42;;;11.10;94.00;;;;;;5029073;28;20576;-76
2021/10/21 07:41:41;;;;;;;17.08;1.83;;;11.10;94.30;;;;;;5038456;28;20049;-77
2021/10/21 07:44:08;;;;;;;16.27;1.92;;;11.20;94.20;;;;;;5027660;28;20026;-76
2021/10/21 07:46:34;;;;;;;16.10;2.15;;;11.20;94.00;;;;;;5030024;28;20113;-76
2021/10/21 07:49:01;;;;;;;14.73;2.15;;;11.20;93.90;;;;;;5030170;28;20026;-76
2021/10/21 07:51:30;;;;;;;11.18;1.67;;;11.20;94.00;;;;;;5019454;28;20028;-76
2021/10/21 07:53:57;;;;;;;14.63;2.28;;;11.20;94.10;;;;;;5013885;28;20025;-76
2021/10/21 07:56:22;;;;;;;13.23;2.17;;;11.20;94.30;;;;;;5029632;28;20029;-76
2021/10/21 07:58:48;;;;;;;12.18;2.20;;;11.20;94.20;;;;;;5029789;28;20044;-76
2021/10/21 08:01:14;;;;;;;18.70;2.13;;;11.20;94.20;;;;;;4994710;28;20064;-76
2021/10/21 08:03:40;;;;;;;14.73;2.03;;;11.30;94.30;;;;;;4994686;28;20359;-76
2021/10/21 08:06:06;;;;;;;17.55;2.53;;;11.30;94.10;;;;;;5011099;28;20037;-76
2021/10/21 08:08:32;;;;;;;13.88;2.08;;;11.40;93.80;;;;;;5028605;28;20022;-76
2021/10/21 08:10:57;;;;;;;16.92;2.40;;;11.40;93.90;;;;;;5028955;28;20060;-76
2021/10/21 08:13:23;;;;;;;12.95;2.58;;;11.60;93.90;;;;;;5021944;28;20037;-76
2021/10/21 08:15:50;;;;;;;17.00;2.28;;;11.70;93.80;;;;;;5027183;28;20041;-77
2021/10/21 08:18:16;;;;;;;10.70;2.13;;;11.80;93.70;;;;;;5025629;28;20104;-77
2021/10/21 08:20:42;;;;;;;16.23;2.53;;;11.90;93.40;;;;;;5026861;28;20120;-77
2021/10/21 08:23:08;;;;;;;21.38;2.28;;;12.00;93.00;;;;;;5016695;28;20575;-77
2021/10/21 08:25:34;;;;;;;12.55;2.08;;;12.00;92.80;;;;;;5009618;28;20037;-77
2021/10/21 08:28:00;;;;;;;17.58;2.85;;;12.10;92.80;;;;;;5009774;28;20053;-77
2021/10/21 08:30:26;;;;;;;17.80;2.22;;;12.20;92.60;;;;;;5028076;28;20110;-77
2021/10/21 08:32:57;;;;;;;17.35;2.30;;;12.10;92.60;;;;;;5029297;28;20113;-77
2021/10/21 08:35:24;;;;;;;13.75;2.05;;;12.10;92.70;;;;;;5029386;28;20022;-77
2021/10/21 08:37:50;;;;;;;14.65;2.40;;;12.10;92.80;;;;;;5071510;28;20182;-77
2021/10/21 08:40:16;;;;;;;18.98;2.50;;;12.10;92.50;;;;;;5013305;28;20053;-77
2021/10/21 08:42:46;;;;;;;15.57;2.30;;;12.20;92.50;;;;;;5033098;28;20052;-77
2021/10/21 08:45:13;;;;;;;16.90;2.35;;;12.20;92.50;;;;;;5033276;28;20026;-77
2021/10/21 08:47:42;;;;;;;17.05;3.10;;;12.20;92.20;;;;;;5033262;28;20026;-77
2021/10/21 08:50:12;;;;;;;12.32;2.25;;;12.10;92.40;;;;;;5032955;28;20018;-77
2021/10/21 08:52:38;;;;;;;20.25;3.45;;;12.00;92.50;;;;;;5032948;28;20071;-77
2021/10/21 08:55:05;;;;;;;12.90;2.47;;;12.00;92.60;;;;;;5033181;28;20060;-77
2021/10/21 08:57:32;;;;;;;14.23;2.80;;;11.90;92.80;;;;;;5032757;28;20746;-77
2021/10/21 08:59:58;;;;;;;12.98;2.08;;;11.80;93.00;;;;;;5015080;28;20477;-77
2021/10/21 09:05:14;;;;;;;14.32;2.83;;;11.80;93.50;;;;;;5030337;28;20030;-74
2021/10/21 09:07:57;;;;;;;;;;;11.80;93.80;;;;;;5033473;28;20028;-74
2021/10/21 09:10:24;;;;;;;10.13;1.90;;;11.90;93.90;;;;;;5017685;28;19909;-74
2021/10/21 09:12:50;;;;;;;15.65;2.85;;;11.90;93.70;;;;;;5033061;28;20032;-74
2021/10/21 09:15:19;;;;;;;14.20;2.60;;;11.90;93.70;;;;;;5012825;28;20044;-73
2021/10/21 09:17:46;;;;;;;14.63;2.53;;;11.90;93.70;;;;;;5025302;28;20099;-73
2021/10/21 09:20:39;;;;;;;7.88;1.88;;;11.90;93.70;;;;;;5009205;28;20124;-73
2021/10/21 09:23:11;;;;;;;11.10;2.45;;;12.00;93.40;;;;;;5010301;28;20090;-73
2021/10/21 09:25:39;;;;;;;13.73;2.10;;;11.90;92.80;;;;;;5023000;28;20086;-73
2021/10/21 09:28:22;;;;;;;12.70;2.30;;;12.00;92.80;;;;;;5040838;28;20437;-73
2021/10/21 09:31:03;;;;;;;11.15;2.10;;;12.00;92.50;;;;;;5026175;28;20028;-73
2021/10/21 09:33:39;;;;;;;8.38;1.88;;;12.00;92.70;;;;;;5024922;28;20022;-77
2021/10/21 09:36:05;;;;;;;15.18;2.25;;;12.00;92.60;;;;;;5026009;28;20127;-77
2021/10/21 09:38:34;;;;;;;11.93;2.05;;;11.90;92.70;;;;;;5026922;28;20125;-77
2021/10/21 09:41:24;;;;;;;9.63;1.67;;;11.90;92.60;;;;;;5019615;28;20030;-77
2021/10/21 09:43:52;;;;;;;12.90;1.50;;;12.00;92.60;;;;;;5011937;28;20037;-77
2021/10/21 09:46:30;;;;;;;8.60;1.65;;;12.00;92.40;;;;;;5015469;28;20385;-76
2021/10/21 09:49:15;;;;;;;13.48;2.00;;;12.00;92.50;;;;;;5038601;28;20666;-76
2021/10/21 09:51:41;;;;;;;10.57;1.98;;;12.10;92.50;;;;;;5028063;28;20033;-77
2021/10/21 09:54:06;;;;;;;13.75;1.77;;;12.10;92.50;;;;;;5012810;28;20030;-76
2021/10/21 09:56:56;;;;;;;10.25;1.42;;;12.20;92.30;;;;;;5011765;28;20029;-77
2021/10/21 09:59:36;;;;;;;8.18;1.13;;;12.20;91.40;;;;;;5013628;28;20029;-76
2021/10/21 10:02:19;;;;;;;10.30;1.45;;;12.20;91.00;;;;;;5013864;28;20033;-77
2021/10/21 10:04:53;;;;;;;6.55;0.80;;;12.20;91.00;;;;;;5013858;28;20021;-77
2021/10/21 10:07:22;;;;;;;6.20;1.00;;;12.20;90.30;;;;;;5031240;28;20819;-76
2021/10/21 10:09:48;;;;;;;;;;;12.20;89.30;;;;;;5014254;28;20037;-77
2021/10/21 10:12:18;;;;;;;7.07;1.30;;;12.20;90.10;;;;;;5031442;28;19913;-76
2021/10/21 10:14:47;;;;;;;7.68;1.38;;;12.30;90.30;;;;;;5046501;28;20017;-77
2021/10/21 10:17:13;;;;;;;;;;;12.30;90.50;;;;;;5031561;28;20120;-77
2021/10/21 10:19:47;;;;;;;7.53;0.80;;;12.30;90.00;;;;;;5013725;28;20005;-77
2021/10/21 10:22:25;;;;;;;8.95;1.10;;;12.30;91.00;;;;;;5031017;28;20104;-77
2021/10/21 10:24:52;;;;;;;8.40;1.38;;;12.30;91.00;;;;;;5011556;28;20386;-77
2021/10/21 10:27:22;;;;;;;4.15;0.77;;;12.40;90.70;;;;;;5016622;28;20071;-77
2021/10/21 10:29:51;;;;;;;7.50;1.63;;;12.40;90.90;;;;;;5032346;28;20081;-77
2021/10/21 10:32:38;;;;;;;7.80;1.20;;;12.40;90.90;;;;;;5064136;27;20091;-76
2021/10/21 10:35:08;;;;;;;6.65;1.17;;;12.50;90.90;;;;;;5011541;28;20045;-77
2021/10/21 10:37:43;;;;;;;9.35;1.35;;;12.50;90.70;;;;;;5011167;28;20038;-76
2021/10/21 10:40:09;;;;;;;7.72;1.52;;;12.50;90.80;;;;;;5030827;28;20048;-76
2021/10/21 10:42:35;;;;;;;9.10;1.50;;;12.60;91.00;;;;;;5012678;28;20060;-76
2021/10/21 10:45:07;;;;;;;11.98;1.50;;;12.50;90.70;;;;;;5030385;28;20474;-77
2021/10/21 10:47:50;;;;;;;9.85;1.60;;;12.50;91.20;;;;;;5013241;28;20041;-77
2021/10/21 10:50:21;;;;;;;11.63;1.38;;;12.60;91.50;;;;;;5018805;28;20020;-76
2021/10/21 10:52:59;;;;;;;6.35;1.15;;;12.60;91.10;;;;;;5060529;28;20120;-77
2021/10/21 10:55:27;;;;;;;6.97;1.20;;;12.70;91.40;;;;;;5012784;28;20028;-77
2021/10/21 10:57:57;;;;;;;7.60;1.33;;;12.80;90.70;;;;;;5029797;28;20052;-76
2021/10/21 11:00:40;;;;;;;10.70;1.45;;;13.00;90.70;;;;;;5014091;28;20109;-78
2021/10/21 11:03:09;;;;;;;12.32;1.10;;;13.10;90.80;;;;;;5010740;28;20033;-77
2021/10/21 11:05:44;;;;;;;7.72;1.27;;;13.10;90.40;;;;;;5009947;28;20022;-78
2021/10/21 11:08:11;;;;;;;5.18;1.20;;;13.20;90.10;;;;;;5026359;28;20030;-78
2021/10/21 11:10:42;;;;;;;8.25;1.30;;;13.20;88.90;;;;;;5011710;28;20057;-77
2021/10/21 11:13:24;;;;;;;5.55;0.85;;;13.10;88.50;;;;;;5011652;28;20117;-77
2021/10/21 11:15:56;;;;;;;8.13;1.30;;;13.10;90.00;;;;;;5028481;28;20063;-78
2021/10/21 11:18:47;;;;;;;4.57;0.70;;;13.10;89.90;;;;;;5017265;28;20017;-79
2021/10/21 11:21:48;;;;;;;6.15;1.20;;;13.10;89.90;;;;;;5042112;28;20034;-78
2021/10/21 11:24:58;;;;;;;4.32;1.20;;;13.10;90.30;;;;;;5010792;28;20033;-79
2021/10/21 11:27:34;;;;;;;4.70;0.80;;;13.20;90.50;;;;;;5030419;28;20059;-80
2021/10/21 11:30:09;;;;;;;6.95;1.10;;;13.30;90.40;;;;;;5028346;28;20801;-79
2021/10/21 11:32:37;;;;;;;2.83;0.70;;;13.30;89.50;;;;;;5027858;28;20389;-79
2021/10/21 11:35:11;;;;;;;7.32;1.00;;;13.30;89.90;;;;;;5012171;28;20029;-78
2021/10/21 11:37:40;;;;;;;5.07;1.30;;;13.20;88.20;;;;;;5028083;28;20044;-76
2021/10/21 11:40:08;;;;;;;7.82;1.15;;;13.10;88.40;;;;;;4998654;28;20113;-76
2021/10/21 11:42:34;;;;;;;7.15;1.02;;;12.90;90.10;;;;;;5027891;28;20042;-77
2021/10/21 11:45:06;;;;;;;4.40;1.10;;;12.80;90.60;;;;;;4996376;28;20509;-77
2021/10/21 11:47:34;;;;;;;4.85;0.75;;;12.60;90.90;;;;;;5036628;28;20504;-77
2021/10/21 11:50:00;;;;;;;2.10;0.98;;;12.50;90.90;;;;;;5028824;28;20677;-77
2021/10/21 11:52:37;;;;;;;5.97;0.75;;;12.30;91.30;;;;;;5043136;28;20037;-77
2021/10/21 11:55:04;;;;;;;3.63;0.70;;;12.10;91.40;;;;;;5009637;28;20438;-77
2021/10/21 11:57:34;;;;;;;3.15;0.60;;;12.10;91.60;;;;;;5014814;28;20061;-77
2021/10/21 12:00:00;;;;;;;4.00;0.95;;;12.00;91.60;;;;;;4991968;28;20117;-77
2021/10/21 12:02:32;;;;;;;4.45;0.63;;;11.90;91.80;;;;;;5021500;28;20105;-77
2021/10/21 12:04:57;;;;;;;4.47;0.60;;;11.90;91.90;;;;;;5011769;28;20029;-79
2021/10/21 12:07:23;;;;;;;4.20;0.73;;;11.80;91.90;;;;;;5027692;28;20440;-77
2021/10/21 12:09:50;;;;;;;3.38;0.60;;;11.70;91.80;;;;;;5025578;28;20037;-78
2021/10/21 12:12:15;;;;;;;4.50;0.80;;;11.60;92.00;;;;;;5011974;28;20029;-77
2021/10/21 12:14:44;;;;;;;3.42;0.60;;;11.60;92.30;;;;;;4993668;28;20094;-77
2021/10/21 12:17:10;;;;;;;9.27;0.95;;;11.60;91.70;;;;;;5009657;28;20057;-77
2021/10/21 12:19:38;;;;;;;7.43;0.80;;;11.50;91.80;;;;;;5042112;28;20037;-78
2021/10/21 12:22:16;;;;;;;6.28;0.98;;;11.50;91.90;;;;;;5029407;28;20137;-78
2021/10/21 12:24:43;;;;;;;2.80;0.40;;;11.50;92.20;;;;;;5044599;28;20030;-79
2021/10/21 12:27:09;;;;;;;3.22;1.02;;;11.50;92.20;;;;;;4996036;28;20101;-79
2021/10/21 12:29:43;;;;;;;5.60;0.65;;;11.50;92.30;;;;;;5011485;28;20044;-80
2021/10/21 12:32:10;;;;;;;5.20;0.90;;;11.70;92.30;;;;;;5011629;28;20386;-80
2021/10/21 12:34:37;;;;;;;7.18;0.90;;;11.80;92.10;;;;;;5029123;28;20034;-80
2021/10/21 12:37:09;;;;;;;5.93;0.80;;;11.90;91.80;;;;;;5011747;28;20041;-79
2021/10/21 12:39:35;;;;;;;7.97;0.98;;;12.00;91.80;;;;;;5029983;28;20032;-79
2021/10/21 12:42:06;;;;;;;6.13;1.02;;;12.10;91.40;;;;;;5012051;28;20050;-80
2021/10/21 12:44:37;;;;;;;7.30;1.05;;;12.10;91.30;;;;;;5011715;28;20037;-80
2021/10/21 12:47:11;;;;;;;5.22;1.05;;;12.10;91.20;;;;;;5011863;28;20032;-79
2021/10/21 12:49:37;;;;;;;8.02;1.00;;;12.20;91.20;;;;;;4995582;28;20032;-79